sensor_id;sensor_type;location;lat;lon;timestamp;P1;durP1;ratioP1;P2;durP2;ratioP2
41305;SDS011;27051;50.376;19.152;2023-09-19T00:01:33;19.50;;;12.40;;
41305;SDS011;27051;50.376;19.152;2023-09-19T00:04:00;18.00;;;12.70;;
41305;SDS011;27051;50.376;19.152;2023-09-19T00:06:30;18.80;;;11.30;;
41305;SDS011;27051;50.376;19.152;2023-09-19T00:08:57;20.60;;;13.10;;
41305;SDS011;27051;50.376;19.152;2023-09-19T00:11:24;18.30;;;12.40;;
41305;SDS011;27051;50.376;19.152;2023-09-19T00:13:51;19.10;;;12.50;;
41305;SDS011;27051;50.376;19.152;2023-09-19T00:16:17;24.40;;;13.80;;
41305;SDS011;27051;50.376;19.152;2023-09-19T00:18:44;17.30;;;12.40;;
41305;SDS011;27051;50.376;19.152;2023-09-19T00:21:12;19.90;;;12.50;;
41305;SDS011;27051;50.376;19.152;2023-09-19T00:23:39;19.00;;;12.90;;
41305;SDS011;27051;50.376;19.152;2023-09-19T00:26:05;22.40;;;13.60;;
41305;SDS011;27051;50.376;19.152;2023-09-19T00:28:32;19.30;;;12.80;;
41305;SDS011;27051;50.376;19.152;2023-09-19T00:30:58;19.30;;;13.10;;
41305;SDS011;27051;50.376;19.152;2023-09-19T00:33:25;18.80;;;12.40;;
41305;SDS011;27051;50.376;19.152;2023-09-19T00:35:52;19.80;;;12.50;;
41305;SDS011;27051;50.376;19.152;2023-09-19T00:38:20;17.70;;;12.30;;
41305;SDS011;27051;50.376;19.152;2023-09-19T00:40:51;19.20;;;12.90;;
41305;SDS011;27051;50.376;19.152;2023-09-19T00:43:18;20.90;;;12.30;;
41305;SDS011;27051;50.376;19.152;2023-09-19T00:45:45;19.50;;;12.10;;
41305;SDS011;27051;50.376;19.152;2023-09-19T00:48:17;20.30;;;12.20;;
41305;SDS011;27051;50.376;19.152;2023-09-19T00:53:15;19.70;;;12.00;;
41305;SDS011;27051;50.376;19.152;2023-09-19T00:55:44;19.90;;;12.30;;
41305;SDS011;27051;50.376;19.152;2023-09-19T00:58:12;18.60;;;13.00;;
41305;SDS011;27051;50.376;19.152;2023-09-19T01:00:38;18.20;;;12.70;;
41305;SDS011;27051;50.376;19.152;2023-09-19T01:03:18;21.20;;;12.40;;
41305;SDS011;27051;50.376;19.152;2023-09-19T01:05:45;19.80;;;12.70;;
41305;SDS011;27051;50.376;19.152;2023-09-19T01:08:12;18.80;;;12.60;;
41305;SDS011;27051;50.376;19.152;2023-09-19T01:10:41;18.10;;;12.60;;
41305;SDS011;27051;50.376;19.152;2023-09-19T01:13:28;19.60;;;12.20;;
41305;SDS011;27051;50.376;19.152;2023-09-19T01:16:13;20.70;;;12.70;;
41305;SDS011;27051;50.376;19.152;2023-09-19T01:19:01;18.50;;;11.40;;
41305;SDS011;27051;50.376;19.152;2023-09-19T01:27:51;19.20;;;12.40;;
41305;SDS011;27051;50.376;19.152;2023-09-19T01:30:34;17.30;;;11.90;;
41305;SDS011;27051;50.376;19.152;2023-09-19T01:33:06;21.10;;;12.00;;
41305;SDS011;27051;50.376;19.152;2023-09-19T01:35:33;17.70;;;12.40;;
41305;SDS011;27051;50.376;19.152;2023-09-19T01:38:09;19.60;;;12.80;;
41305;SDS011;27051;50.376;19.152;2023-09-19T01:40:39;17.20;;;12.70;;
41305;SDS011;27051;50.376;19.152;2023-09-19T01:43:21;19.30;;;12.60;;
41305;SDS011;27051;50.376;19.152;2023-09-19T01:48:43;19.40;;;12.30;;
41305;SDS011;27051;50.376;19.152;2023-09-19T01:51:31;18.80;;;12.50;;
41305;SDS011;27051;50.376;19.152;2023-09-19T01:54:03;18.40;;;11.90;;
41305;SDS011;27051;50.376;19.152;2023-09-19T01:56:49;19.50;;;12.30;;
41305;SDS011;27051;50.376;19.152;2023-09-19T01:59:21;18.60;;;11.60;;
41305;SDS011;27051;50.376;19.152;2023-09-19T02:01:58;21.30;;;12.50;;
41305;SDS011;27051;50.376;19.152;2023-09-19T02:04:26;19.70;;;12.20;;
41305;SDS011;27051;50.376;19.152;2023-09-19T02:06:53;20.80;;;11.90;;
41305;SDS011;27051;50.376;19.152;2023-09-19T02:09:19;18.50;;;11.50;;
41305;SDS011;27051;50.376;19.152;2023-09-19T02:11:46;17.70;;;11.90;;
41305;SDS011;27051;50.376;19.152;2023-09-19T02:14:12;19.30;;;12.10;;
41305;SDS011;27051;50.376;19.152;2023-09-19T02:16:39;19.90;;;12.90;;
41305;SDS011;27051;50.376;19.152;2023-09-19T02:19:06;20.70;;;12.90;;
41305;SDS011;27051;50.376;19.152;2023-09-19T02:21:32;21.80;;;13.50;;
41305;SDS011;27051;50.376;19.152;2023-09-19T02:23:59;21.50;;;13.20;;
41305;SDS011;27051;50.376;19.152;2023-09-19T02:26:27;19.50;;;12.00;;
41305;SDS011;27051;50.376;19.152;2023-09-19T02:28:53;20.20;;;12.70;;
41305;SDS011;27051;50.376;19.152;2023-09-19T02:31:20;20.40;;;12.30;;
41305;SDS011;27051;50.376;19.152;2023-09-19T02:33:47;19.00;;;12.30;;
41305;SDS011;27051;50.376;19.152;2023-09-19T02:36:13;20.00;;;12.50;;
41305;SDS011;27051;50.376;19.152;2023-09-19T02:38:40;21.60;;;12.60;;
41305;SDS011;27051;50.376;19.152;2023-09-19T02:41:06;18.80;;;12.70;;
41305;SDS011;27051;50.376;19.152;2023-09-19T02:43:33;20.00;;;12.40;;
41305;SDS011;27051;50.376;19.152;2023-09-19T02:46:00;18.10;;;12.40;;
41305;SDS011;27051;50.376;19.152;2023-09-19T02:48:26;20.10;;;12.00;;
41305;SDS011;27051;50.376;19.152;2023-09-19T02:50:53;23.00;;;12.60;;
41305;SDS011;27051;50.376;19.152;2023-09-19T02:53:20;20.10;;;13.60;;
41305;SDS011;27051;50.376;19.152;2023-09-19T02:55:46;21.10;;;13.80;;
41305;SDS011;27051;50.376;19.152;2023-09-19T02:58:13;19.80;;;13.30;;
41305;SDS011;27051;50.376;19.152;2023-09-19T03:00:40;21.40;;;13.70;;
41305;SDS011;27051;50.376;19.152;2023-09-19T03:03:08;19.60;;;12.90;;
41305;SDS011;27051;50.376;19.152;2023-09-19T03:05:35;21.90;;;13.40;;
41305;SDS011;27051;50.376;19.152;2023-09-19T03:08:02;19.00;;;13.30;;
41305;SDS011;27051;50.376;19.152;2023-09-19T03:10:28;20.10;;;13.40;;
41305;SDS011;27051;50.376;19.152;2023-09-19T03:12:55;21.00;;;13.60;;
41305;SDS011;27051;50.376;19.152;2023-09-19T03:15:22;20.00;;;14.10;;
41305;SDS011;27051;50.376;19.152;2023-09-19T03:17:49;22.30;;;13.20;;
41305;SDS011;27051;50.376;19.152;2023-09-19T03:20:16;23.40;;;14.10;;
41305;SDS011;27051;50.376;19.152;2023-09-19T03:22:45;23.60;;;14.10;;
41305;SDS011;27051;50.376;19.152;2023-09-19T03:25:12;21.20;;;13.80;;
41305;SDS011;27051;50.376;19.152;2023-09-19T03:27:39;24.50;;;16.30;;
41305;SDS011;27051;50.376;19.152;2023-09-19T03:30:06;22.40;;;14.60;;
41305;SDS011;27051;50.376;19.152;2023-09-19T03:32:36;21.00;;;14.90;;
41305;SDS011;27051;50.376;19.152;2023-09-19T03:35:04;21.60;;;14.20;;
41305;SDS011;27051;50.376;19.152;2023-09-19T03:37:31;22.80;;;15.20;;
41305;SDS011;27051;50.376;19.152;2023-09-19T03:39:58;22.00;;;15.40;;
41305;SDS011;27051;50.376;19.152;2023-09-19T03:42:25;23.20;;;15.70;;
41305;SDS011;27051;50.376;19.152;2023-09-19T03:44:52;24.00;;;15.40;;
41305;SDS011;27051;50.376;19.152;2023-09-19T03:47:18;22.00;;;14.40;;
41305;SDS011;27051;50.376;19.152;2023-09-19T03:49:45;25.20;;;15.30;;
41305;SDS011;27051;50.376;19.152;2023-09-19T03:52:12;21.50;;;15.10;;
41305;SDS011;27051;50.376;19.152;2023-09-19T03:54:38;22.90;;;15.20;;
41305;SDS011;27051;50.376;19.152;2023-09-19T03:57:05;24.70;;;14.80;;
41305;SDS011;27051;50.376;19.152;2023-09-19T03:59:32;25.30;;;15.80;;
41305;SDS011;27051;50.376;19.152;2023-09-19T04:01:58;22.90;;;15.40;;
41305;SDS011;27051;50.376;19.152;2023-09-19T04:04:25;21.70;;;15.10;;
41305;SDS011;27051;50.376;19.152;2023-09-19T04:06:51;25.30;;;15.50;;
41305;SDS011;27051;50.376;19.152;2023-09-19T04:09:18;23.30;;;16.00;;
41305;SDS011;27051;50.376;19.152;2023-09-19T04:11:51;27.70;;;17.00;;
41305;SDS011;27051;50.376;19.152;2023-09-19T04:14:17;23.50;;;15.40;;
41305;SDS011;27051;50.376;19.152;2023-09-19T04:16:44;26.90;;;16.60;;
41305;SDS011;27051;50.376;19.152;2023-09-19T04:19:11;28.60;;;16.40;;
41305;SDS011;27051;50.376;19.152;2023-09-19T04:21:37;24.30;;;16.00;;
41305;SDS011;27051;50.376;19.152;2023-09-19T04:24:04;22.00;;;15.50;;
41305;SDS011;27051;50.376;19.152;2023-09-19T04:26:31;25.50;;;16.40;;
41305;SDS011;27051;50.376;19.152;2023-09-19T04:28:58;25.80;;;16.40;;
41305;SDS011;27051;50.376;19.152;2023-09-19T04:31:25;23.20;;;16.70;;
41305;SDS011;27051;50.376;19.152;2023-09-19T04:33:51;23.90;;;16.30;;
41305;SDS011;27051;50.376;19.152;2023-09-19T04:36:18;24.00;;;16.20;;
41305;SDS011;27051;50.376;19.152;2023-09-19T04:38:45;22.80;;;16.20;;
41305;SDS011;27051;50.376;19.152;2023-09-19T04:41:11;24.80;;;17.40;;
41305;SDS011;27051;50.376;19.152;2023-09-19T04:43:39;26.20;;;16.40;;
41305;SDS011;27051;50.376;19.152;2023-09-19T04:46:06;25.90;;;17.00;;
41305;SDS011;27051;50.376;19.152;2023-09-19T04:48:32;25.70;;;17.80;;
41305;SDS011;27051;50.376;19.152;2023-09-19T04:51:00;28.80;;;18.30;;
41305;SDS011;27051;50.376;19.152;2023-09-19T04:53:27;25.60;;;17.90;;
41305;SDS011;27051;50.376;19.152;2023-09-19T04:55:53;27.40;;;19.20;;
41305;SDS011;27051;50.376;19.152;2023-09-19T04:58:20;27.80;;;19.10;;
41305;SDS011;27051;50.376;19.152;2023-09-19T05:00:48;25.40;;;18.80;;
41305;SDS011;27051;50.376;19.152;2023-09-19T05:03:14;27.80;;;18.30;;
41305;SDS011;27051;50.376;19.152;2023-09-19T05:05:41;27.20;;;18.90;;
41305;SDS011;27051;50.376;19.152;2023-09-19T05:08:08;26.20;;;18.40;;
41305;SDS011;27051;50.376;19.152;2023-09-19T05:10:35;26.60;;;19.40;;
41305;SDS011;27051;50.376;19.152;2023-09-19T05:13:02;26.70;;;19.10;;
41305;SDS011;27051;50.376;19.152;2023-09-19T05:15:41;26.70;;;19.30;;
41305;SDS011;27051;50.376;19.152;2023-09-19T05:18:07;26.70;;;18.50;;
41305;SDS011;27051;50.376;19.152;2023-09-19T05:20:34;28.80;;;19.10;;
41305;SDS011;27051;50.376;19.152;2023-09-19T05:23:01;28.20;;;18.60;;
41305;SDS011;27051;50.376;19.152;2023-09-19T05:25:33;30.10;;;20.40;;
41305;SDS011;27051;50.376;19.152;2023-09-19T05:28:01;28.70;;;20.40;;
41305;SDS011;27051;50.376;19.152;2023-09-19T05:30:27;29.90;;;20.30;;
41305;SDS011;27051;50.376;19.152;2023-09-19T05:32:54;27.50;;;19.70;;
41305;SDS011;27051;50.376;19.152;2023-09-19T05:35:21;30.50;;;19.30;;
41305;SDS011;27051;50.376;19.152;2023-09-19T05:37:51;28.80;;;19.80;;
41305;SDS011;27051;50.376;19.152;2023-09-19T05:40:19;31.70;;;20.50;;
41305;SDS011;27051;50.376;19.152;2023-09-19T05:42:46;32.30;;;21.30;;
41305;SDS011;27051;50.376;19.152;2023-09-19T05:45:13;31.10;;;21.20;;
41305;SDS011;27051;50.376;19.152;2023-09-19T05:47:40;30.20;;;21.20;;
41305;SDS011;27051;50.376;19.152;2023-09-19T05:50:07;30.40;;;21.20;;
41305;SDS011;27051;50.376;19.152;2023-09-19T05:52:35;29.30;;;21.10;;
41305;SDS011;27051;50.376;19.152;2023-09-19T05:55:05;27.00;;;20.70;;
41305;SDS011;27051;50.376;19.152;2023-09-19T05:57:35;26.10;;;21.10;;
41305;SDS011;27051;50.376;19.152;2023-09-19T06:00:03;30.10;;;20.10;;
41305;SDS011;27051;50.376;19.152;2023-09-19T06:02:30;27.00;;;20.10;;
41305;SDS011;27051;50.376;19.152;2023-09-19T06:04:57;28.10;;;19.70;;
41305;SDS011;27051;50.376;19.152;2023-09-19T06:07:23;31.50;;;20.50;;
41305;SDS011;27051;50.376;19.152;2023-09-19T06:09:50;27.70;;;18.50;;
41305;SDS011;27051;50.376;19.152;2023-09-19T06:12:17;26.00;;;18.30;;
41305;SDS011;27051;50.376;19.152;2023-09-19T06:14:44;29.90;;;19.20;;
41305;SDS011;27051;50.376;19.152;2023-09-19T06:17:10;33.00;;;18.50;;
41305;SDS011;27051;50.376;19.152;2023-09-19T06:19:37;28.40;;;17.20;;
41305;SDS011;27051;50.376;19.152;2023-09-19T06:22:04;26.80;;;17.80;;
41305;SDS011;27051;50.376;19.152;2023-09-19T06:24:30;26.40;;;18.00;;
41305;SDS011;27051;50.376;19.152;2023-09-19T06:26:57;26.80;;;18.00;;
41305;SDS011;27051;50.376;19.152;2023-09-19T06:29:24;27.30;;;17.80;;
41305;SDS011;27051;50.376;19.152;2023-09-19T06:31:51;26.40;;;18.80;;
41305;SDS011;27051;50.376;19.152;2023-09-19T06:34:18;26.70;;;17.40;;
41305;SDS011;27051;50.376;19.152;2023-09-19T06:36:44;23.30;;;16.40;;
41305;SDS011;27051;50.376;19.152;2023-09-19T06:39:11;24.60;;;16.80;;
41305;SDS011;27051;50.376;19.152;2023-09-19T06:41:38;25.40;;;16.70;;
41305;SDS011;27051;50.376;19.152;2023-09-19T06:44:04;28.30;;;16.40;;
41305;SDS011;27051;50.376;19.152;2023-09-19T06:46:32;24.60;;;15.70;;
41305;SDS011;27051;50.376;19.152;2023-09-19T06:48:58;23.80;;;15.40;;
41305;SDS011;27051;50.376;19.152;2023-09-19T06:51:25;25.70;;;17.10;;
41305;SDS011;27051;50.376;19.152;2023-09-19T06:53:52;25.30;;;15.00;;
41305;SDS011;27051;50.376;19.152;2023-09-19T06:56:19;23.10;;;14.60;;
41305;SDS011;27051;50.376;19.152;2023-09-19T06:58:45;24.00;;;15.70;;
41305;SDS011;27051;50.376;19.152;2023-09-19T07:01:12;21.30;;;13.70;;
41305;SDS011;27051;50.376;19.152;2023-09-19T07:03:39;19.90;;;12.50;;
41305;SDS011;27051;50.376;19.152;2023-09-19T07:06:06;22.70;;;14.00;;
41305;SDS011;27051;50.376;19.152;2023-09-19T07:08:32;20.10;;;13.70;;
41305;SDS011;27051;50.376;19.152;2023-09-19T07:10:59;23.20;;;13.10;;
41305;SDS011;27051;50.376;19.152;2023-09-19T07:13:26;21.30;;;12.80;;
41305;SDS011;27051;50.376;19.152;2023-09-19T07:15:52;20.40;;;12.70;;
41305;SDS011;27051;50.376;19.152;2023-09-19T07:18:19;16.80;;;11.50;;
41305;SDS011;27051;50.376;19.152;2023-09-19T07:20:46;19.50;;;11.90;;
41305;SDS011;27051;50.376;19.152;2023-09-19T07:23:12;20.80;;;12.00;;
41305;SDS011;27051;50.376;19.152;2023-09-19T07:25:39;21.90;;;11.20;;
41305;SDS011;27051;50.376;19.152;2023-09-19T07:28:06;22.40;;;12.30;;
41305;SDS011;27051;50.376;19.152;2023-09-19T07:30:35;19.30;;;11.20;;
41305;SDS011;27051;50.376;19.152;2023-09-19T07:33:03;17.30;;;10.50;;
41305;SDS011;27051;50.376;19.152;2023-09-19T07:35:29;19.20;;;10.20;;
41305;SDS011;27051;50.376;19.152;2023-09-19T07:37:56;16.10;;;10.20;;
41305;SDS011;27051;50.376;19.152;2023-09-19T07:40:23;14.10;;;9.50;;
41305;SDS011;27051;50.376;19.152;2023-09-19T07:42:50;17.50;;;9.60;;
41305;SDS011;27051;50.376;19.152;2023-09-19T07:45:17;14.40;;;8.20;;
41305;SDS011;27051;50.376;19.152;2023-09-19T07:47:44;17.30;;;9.00;;
41305;SDS011;27051;50.376;19.152;2023-09-19T07:50:11;12.50;;;7.50;;
41305;SDS011;27051;50.376;19.152;2023-09-19T07:52:38;12.50;;;8.10;;
41305;SDS011;27051;50.376;19.152;2023-09-19T07:55:06;15.30;;;7.60;;
41305;SDS011;27051;50.376;19.152;2023-09-19T07:57:33;11.90;;;7.10;;
41305;SDS011;27051;50.376;19.152;2023-09-19T08:00:00;15.80;;;7.60;;
41305;SDS011;27051;50.376;19.152;2023-09-19T08:02:27;9.90;;;6.70;;
41305;SDS011;27051;50.376;19.152;2023-09-19T08:04:53;13.70;;;6.60;;
41305;SDS011;27051;50.376;19.152;2023-09-19T08:07:20;10.00;;;6.10;;
41305;SDS011;27051;50.376;19.152;2023-09-19T08:09:47;11.50;;;7.00;;
41305;SDS011;27051;50.376;19.152;2023-09-19T08:12:13;9.20;;;5.20;;
41305;SDS011;27051;50.376;19.152;2023-09-19T08:14:40;13.50;;;5.70;;
41305;SDS011;27051;50.376;19.152;2023-09-19T08:17:06;11.40;;;6.20;;
41305;SDS011;27051;50.376;19.152;2023-09-19T08:19:33;7.70;;;5.60;;
41305;SDS011;27051;50.376;19.152;2023-09-19T08:22:00;9.90;;;5.90;;
41305;SDS011;27051;50.376;19.152;2023-09-19T08:24:27;9.80;;;6.10;;
41305;SDS011;27051;50.376;19.152;2023-09-19T08:26:55;10.40;;;6.10;;
41305;SDS011;27051;50.376;19.152;2023-09-19T08:29:23;8.90;;;5.20;;
41305;SDS011;27051;50.376;19.152;2023-09-19T08:31:51;8.50;;;4.80;;
41305;SDS011;27051;50.376;19.152;2023-09-19T08:34:17;7.70;;;4.60;;
41305;SDS011;27051;50.376;19.152;2023-09-19T08:36:44;9.70;;;4.70;;
41305;SDS011;27051;50.376;19.152;2023-09-19T08:39:11;9.60;;;4.50;;
41305;SDS011;27051;50.376;19.152;2023-09-19T08:41:37;7.00;;;4.90;;
41305;SDS011;27051;50.376;19.152;2023-09-19T08:44:04;9.90;;;4.80;;
41305;SDS011;27051;50.376;19.152;2023-09-19T08:46:30;9.10;;;4.90;;
41305;SDS011;27051;50.376;19.152;2023-09-19T08:49:04;8.30;;;4.50;;
41305;SDS011;27051;50.376;19.152;2023-09-19T08:51:42;11.40;;;5.40;;
41305;SDS011;27051;50.376;19.152;2023-09-19T08:54:21;8.20;;;4.70;;
41305;SDS011;27051;50.376;19.152;2023-09-19T08:56:50;10.70;;;5.30;;
41305;SDS011;27051;50.376;19.152;2023-09-19T08:59:23;7.60;;;4.70;;
41305;SDS011;27051;50.376;19.152;2023-09-19T09:01:52;14.30;;;5.20;;
41305;SDS011;27051;50.376;19.152;2023-09-19T09:04:19;9.20;;;4.80;;
41305;SDS011;27051;50.376;19.152;2023-09-19T09:06:48;10.90;;;4.90;;
41305;SDS011;27051;50.376;19.152;2023-09-19T09:09:16;11.50;;;4.80;;
41305;SDS011;27051;50.376;19.152;2023-09-19T09:11:43;13.10;;;4.70;;
41305;SDS011;27051;50.376;19.152;2023-09-19T09:14:10;9.60;;;5.30;;
41305;SDS011;27051;50.376;19.152;2023-09-19T09:16:36;11.30;;;4.80;;
41305;SDS011;27051;50.376;19.152;2023-09-19T09:19:04;10.10;;;4.70;;
41305;SDS011;27051;50.376;19.152;2023-09-19T09:21:31;10.10;;;4.80;;
41305;SDS011;27051;50.376;19.152;2023-09-19T09:23:58;10.20;;;5.10;;
41305;SDS011;27051;50.376;19.152;2023-09-19T09:26:40;11.60;;;5.30;;
41305;SDS011;27051;50.376;19.152;2023-09-19T09:29:08;10.30;;;5.10;;
41305;SDS011;27051;50.376;19.152;2023-09-19T09:31:34;10.00;;;5.20;;
41305;SDS011;27051;50.376;19.152;2023-09-19T09:34:01;11.30;;;5.40;;
41305;SDS011;27051;50.376;19.152;2023-09-19T09:36:34;10.80;;;5.20;;
41305;SDS011;27051;50.376;19.152;2023-09-19T09:39:02;11.40;;;5.40;;
41305;SDS011;27051;50.376;19.152;2023-09-19T09:41:35;16.30;;;6.30;;
41305;SDS011;27051;50.376;19.152;2023-09-19T09:44:12;9.40;;;5.20;;
41305;SDS011;27051;50.376;19.152;2023-09-19T09:46:44;12.00;;;5.50;;
41305;SDS011;27051;50.376;19.152;2023-09-19T09:49:18;10.00;;;5.40;;
41305;SDS011;27051;50.376;19.152;2023-09-19T09:51:49;16.60;;;6.10;;
41305;SDS011;27051;50.376;19.152;2023-09-19T09:54:25;15.30;;;5.80;;
41305;SDS011;27051;50.376;19.152;2023-09-19T09:57:00;10.00;;;5.30;;
41305;SDS011;27051;50.376;19.152;2023-09-19T09:59:47;14.10;;;5.50;;
41305;SDS011;27051;50.376;19.152;2023-09-19T10:02:17;11.20;;;5.00;;
41305;SDS011;27051;50.376;19.152;2023-09-19T10:04:46;26.00;;;6.90;;
41305;SDS011;27051;50.376;19.152;2023-09-19T10:07:23;30.00;;;8.30;;
41305;SDS011;27051;50.376;19.152;2023-09-19T10:09:59;20.30;;;5.90;;
41305;SDS011;27051;50.376;19.152;2023-09-19T10:12:28;19.40;;;5.80;;
41305;SDS011;27051;50.376;19.152;2023-09-19T10:14:55;17.30;;;5.70;;
41305;SDS011;27051;50.376;19.152;2023-09-19T10:17:26;16.70;;;6.20;;
41305;SDS011;27051;50.376;19.152;2023-09-19T10:19:55;14.60;;;5.10;;
41305;SDS011;27051;50.376;19.152;2023-09-19T10:22:23;12.20;;;5.70;;
41305;SDS011;27051;50.376;19.152;2023-09-19T10:24:55;16.60;;;6.70;;
41305;SDS011;27051;50.376;19.152;2023-09-19T10:27:26;12.50;;;6.10;;
41305;SDS011;27051;50.376;19.152;2023-09-19T10:29:52;12.00;;;5.80;;
41305;SDS011;27051;50.376;19.152;2023-09-19T10:32:22;12.70;;;5.80;;
41305;SDS011;27051;50.376;19.152;2023-09-19T10:34:49;13.20;;;6.10;;
41305;SDS011;27051;50.376;19.152;2023-09-19T10:37:16;11.40;;;5.90;;
41305;SDS011;27051;50.376;19.152;2023-09-19T10:39:45;11.30;;;6.00;;
41305;SDS011;27051;50.376;19.152;2023-09-19T10:42:14;11.80;;;6.20;;
41305;SDS011;27051;50.376;19.152;2023-09-19T10:44:45;21.60;;;6.80;;
41305;SDS011;27051;50.376;19.152;2023-09-19T10:47:17;15.10;;;6.00;;
41305;SDS011;27051;50.376;19.152;2023-09-19T10:49:44;12.60;;;6.50;;
41305;SDS011;27051;50.376;19.152;2023-09-19T10:52:11;12.80;;;6.40;;
41305;SDS011;27051;50.376;19.152;2023-09-19T10:54:41;13.10;;;6.50;;
41305;SDS011;27051;50.376;19.152;2023-09-19T10:57:18;14.50;;;5.70;;
41305;SDS011;27051;50.376;19.152;2023-09-19T11:00:00;10.90;;;6.30;;
41305;SDS011;27051;50.376;19.152;2023-09-19T11:04:56;13.00;;;5.60;;
41305;SDS011;27051;50.376;19.152;2023-09-19T11:10:43;13.90;;;5.70;;
41305;SDS011;27051;50.376;19.152;2023-09-19T11:13:24;8.50;;;4.60;;
41305;SDS011;27051;50.376;19.152;2023-09-19T11:26:40;8.50;;;4.00;;
41305;SDS011;27051;50.376;19.152;2023-09-19T11:29:26;6.00;;;3.70;;
41305;SDS011;27051;50.376;19.152;2023-09-19T11:31:53;8.50;;;3.60;;
41305;SDS011;27051;50.376;19.152;2023-09-19T11:37:03;11.20;;;4.10;;
41305;SDS011;27051;50.376;19.152;2023-09-19T11:40:06;10.30;;;3.80;;
41305;SDS011;27051;50.376;19.152;2023-09-19T11:42:43;7.10;;;3.70;;
41305;SDS011;27051;50.376;19.152;2023-09-19T11:46:12;7.40;;;3.90;;
41305;SDS011;27051;50.376;19.152;2023-09-19T11:48:07;5.10;;;3.50;;
41305;SDS011;27051;50.376;19.152;2023-09-19T11:50:35;6.70;;;3.70;;
41305;SDS011;27051;50.376;19.152;2023-09-19T11:53:02;7.00;;;3.90;;
41305;SDS011;27051;50.376;19.152;2023-09-19T11:55:29;9.80;;;3.90;;
41305;SDS011;27051;50.376;19.152;2023-09-19T11:57:56;7.00;;;3.90;;
41305;SDS011;27051;50.376;19.152;2023-09-19T12:00:23;9.80;;;4.10;;
41305;SDS011;27051;50.376;19.152;2023-09-19T12:02:50;10.40;;;4.40;;
41305;SDS011;27051;50.376;19.152;2023-09-19T12:05:28;5.90;;;4.00;;
41305;SDS011;27051;50.376;19.152;2023-09-19T12:07:56;5.40;;;3.80;;
41305;SDS011;27051;50.376;19.152;2023-09-19T12:10:23;9.70;;;4.10;;
41305;SDS011;27051;50.376;19.152;2023-09-19T12:12:49;13.20;;;4.80;;
41305;SDS011;27051;50.376;19.152;2023-09-19T12:15:22;8.60;;;4.30;;
41305;SDS011;27051;50.376;19.152;2023-09-19T12:17:49;8.50;;;4.40;;
41305;SDS011;27051;50.376;19.152;2023-09-19T12:20:16;6.50;;;4.00;;
41305;SDS011;27051;50.376;19.152;2023-09-19T12:22:43;7.00;;;4.70;;
41305;SDS011;27051;50.376;19.152;2023-09-19T12:25:11;9.40;;;4.20;;
41305;SDS011;27051;50.376;19.152;2023-09-19T12:27:42;6.90;;;4.90;;
41305;SDS011;27051;50.376;19.152;2023-09-19T12:30:10;6.70;;;4.10;;
41305;SDS011;27051;50.376;19.152;2023-09-19T12:32:37;9.20;;;4.90;;
41305;SDS011;27051;50.376;19.152;2023-09-19T12:35:04;10.90;;;5.20;;
41305;SDS011;27051;50.376;19.152;2023-09-19T12:37:31;13.00;;;5.80;;
41305;SDS011;27051;50.376;19.152;2023-09-19T12:40:08;10.40;;;5.50;;
41305;SDS011;27051;50.376;19.152;2023-09-19T12:42:35;9.10;;;5.10;;
41305;SDS011;27051;50.376;19.152;2023-09-19T12:45:02;10.00;;;5.30;;
41305;SDS011;27051;50.376;19.152;2023-09-19T12:47:34;11.00;;;6.10;;
41305;SDS011;27051;50.376;19.152;2023-09-19T12:50:13;10.60;;;6.00;;
41305;SDS011;27051;50.376;19.152;2023-09-19T12:52:48;9.40;;;5.70;;
41305;SDS011;27051;50.376;19.152;2023-09-19T12:58:19;14.00;;;6.10;;
41305;SDS011;27051;50.376;19.152;2023-09-19T13:00:45;8.80;;;5.40;;
41305;SDS011;27051;50.376;19.152;2023-09-19T13:05:52;11.70;;;5.60;;
41305;SDS011;27051;50.376;19.152;2023-09-19T13:08:24;7.60;;;5.30;;
41305;SDS011;27051;50.376;19.152;2023-09-19T13:10:59;7.10;;;5.30;;
41305;SDS011;27051;50.376;19.152;2023-09-19T13:13:29;10.00;;;5.50;;
41305;SDS011;27051;50.376;19.152;2023-09-19T13:15:56;8.40;;;5.20;;
41305;SDS011;27051;50.376;19.152;2023-09-19T13:18:23;11.90;;;5.60;;
41305;SDS011;27051;50.376;19.152;2023-09-19T13:21:06;10.70;;;6.20;;
41305;SDS011;27051;50.376;19.152;2023-09-19T13:23:35;12.60;;;5.60;;
41305;SDS011;27051;50.376;19.152;2023-09-19T13:26:02;7.70;;;5.50;;
41305;SDS011;27051;50.376;19.152;2023-09-19T13:28:28;11.60;;;5.40;;
41305;SDS011;27051;50.376;19.152;2023-09-19T13:30:55;8.00;;;5.50;;
41305;SDS011;27051;50.376;19.152;2023-09-19T13:33:22;7.20;;;5.00;;
41305;SDS011;27051;50.376;19.152;2023-09-19T13:35:48;10.40;;;5.00;;
41305;SDS011;27051;50.376;19.152;2023-09-19T13:38:15;6.50;;;5.00;;
41305;SDS011;27051;50.376;19.152;2023-09-19T13:40:42;58.60;;;45.20;;
41305;SDS011;27051;50.376;19.152;2023-09-19T13:43:08;25.80;;;16.90;;
41305;SDS011;27051;50.376;19.152;2023-09-19T13:45:35;8.60;;;4.90;;
41305;SDS011;27051;50.376;19.152;2023-09-19T13:48:02;7.90;;;5.00;;
41305;SDS011;27051;50.376;19.152;2023-09-19T13:50:29;6.90;;;4.40;;
41305;SDS011;27051;50.376;19.152;2023-09-19T13:52:55;5.60;;;4.20;;
41305;SDS011;27051;50.376;19.152;2023-09-19T13:55:22;4.80;;;4.30;;
41305;SDS011;27051;50.376;19.152;2023-09-19T13:57:49;7.30;;;4.10;;
41305;SDS011;27051;50.376;19.152;2023-09-19T14:00:16;8.80;;;4.40;;
41305;SDS011;27051;50.376;19.152;2023-09-19T14:02:43;6.10;;;4.00;;
41305;SDS011;27051;50.376;19.152;2023-09-19T14:05:09;6.20;;;3.90;;
41305;SDS011;27051;50.376;19.152;2023-09-19T14:07:36;6.10;;;4.00;;
41305;SDS011;27051;50.376;19.152;2023-09-19T14:10:03;9.60;;;3.60;;
41305;SDS011;27051;50.376;19.152;2023-09-19T14:12:30;5.70;;;3.20;;
41305;SDS011;27051;50.376;19.152;2023-09-19T14:14:56;5.90;;;3.40;;
41305;SDS011;27051;50.376;19.152;2023-09-19T14:17:23;4.60;;;3.00;;
41305;SDS011;27051;50.376;19.152;2023-09-19T14:19:49;7.70;;;3.30;;
41305;SDS011;27051;50.376;19.152;2023-09-19T14:22:16;5.10;;;3.40;;
41305;SDS011;27051;50.376;19.152;2023-09-19T14:24:43;3.50;;;2.90;;
41305;SDS011;27051;50.376;19.152;2023-09-19T14:27:09;4.70;;;2.80;;
41305;SDS011;27051;50.376;19.152;2023-09-19T14:29:36;6.30;;;3.00;;
41305;SDS011;27051;50.376;19.152;2023-09-19T14:32:04;6.20;;;3.50;;
41305;SDS011;27051;50.376;19.152;2023-09-19T14:34:31;3.80;;;2.60;;
41305;SDS011;27051;50.376;19.152;2023-09-19T14:37:04;4.30;;;2.90;;
41305;SDS011;27051;50.376;19.152;2023-09-19T14:39:30;5.30;;;2.70;;
41305;SDS011;27051;50.376;19.152;2023-09-19T14:41:57;5.60;;;2.80;;
41305;SDS011;27051;50.376;19.152;2023-09-19T14:44:24;3.00;;;2.50;;
41305;SDS011;27051;50.376;19.152;2023-09-19T14:46:51;7.70;;;2.60;;
41305;SDS011;27051;50.376;19.152;2023-09-19T14:49:17;6.50;;;2.30;;
41305;SDS011;27051;50.376;19.152;2023-09-19T14:51:44;5.60;;;3.00;;
41305;SDS011;27051;50.376;19.152;2023-09-19T14:54:11;2.90;;;2.40;;
41305;SDS011;27051;50.376;19.152;2023-09-19T14:56:37;7.00;;;2.70;;
41305;SDS011;27051;50.376;19.152;2023-09-19T14:59:04;4.50;;;2.60;;
41305;SDS011;27051;50.376;19.152;2023-09-19T15:01:31;3.00;;;2.30;;
41305;SDS011;27051;50.376;19.152;2023-09-19T15:03:57;5.10;;;2.50;;